Emerald Princess — ZCDP8 — position and weather

sailwx.info

Track history (hours):
 
Tides and Currents Weather Stations Pressure Air Temp Water Temp Dewpoint Dewpoint Depression Visibility Wind Speed Wind Dir Waves Ship Positions

Emerald Princess

Last reported at 2019-Jan-23 09:00 UTC. Time now 2019-Jan-23 22:59 UTC.
Position N 20°48' W 152°48'.

Type: Ship. MMSI: 310531000.

Wind from 120 at 20 knots

Barometer 1018.1 mb
Air temperature 24.0 ° C
Dewpoint 19.6 ° C
Water temperature 24.0 ° C

Date/timePositionNaut miles runAvg speedWind from/ knotsBaromVisibWave heightAir tempDewpointWater temp
2019-Jan-23 09:00N 20°48' W 152°48'   120 / 201018.1 24.019.624.0
2019-Jan-20 07:00N 31°42' W 127°30'18120.1 200 / 91020.8 15.515.519.0
2019-Jan-19 22:00N 32°36' W 124°06'15715.3 360 / 131024.0 0.1 20.011.818.0
2019-Jan-19 11:46N 33°18' W 121°06'414.9
2019-Jan-19 11:30N 33°19' W 121°02'714.5
2019-Jan-19 11:00N 33°21' W 120°53'5319.2
2019-Jan-19 11:00N 33°18' W 120°48'510.0 360 / 401021.110.8 14.510.316.0
2019-Jan-19 10:30N 33°22' W 120°45'713.5
2019-Jan-19 10:00N 33°24' W 120°37'713.2
2019-Jan-19 09:30N 33°25' W 120°29'712.5
2019-Jan-19 08:56N 33°27' W 120°21'512.3
2019-Jan-19 08:30N 33°28' W 120°15'714.3
2019-Jan-19 08:00N 33°29' W 120°06'8734.3
2019-Jan-19 08:00N 33°24' W 120°00'713.4 330 / 311024.4 2.2 15.012.514.0
2019-Jan-19 07:30N 33°30' W 119°58'714.1
2019-Jan-19 07:00N 33°31' W 119°50'714.2
2019-Jan-19 06:30N 33°32' W 119°41'714.2
2019-Jan-19 06:00N 33°33' W 119°33'713.8
2019-Jan-19 05:30N 33°34' W 119°24'714.5
2019-Jan-19 05:01N 33°35' W 119°16'714.6
2019-Jan-19 04:31N 33°36' W 119°07'714.9
2019-Jan-19 04:00N 33°37' W 118°58'815.3
2019-Jan-19 03:30N 33°37' W 118°49'715.1
2019-Jan-19 03:01N 33°37' W 118°40'815.5
2019-Jan-19 02:30N 33°37' W 118°31'714.5
2019-Jan-19 02:00N 33°39' W 118°22'510.6
2019-Jan-19 01:31N 33°40' W 118°16'4 8.1
2019-Jan-19 01:00N 33°44' W 118°16'1 2.5
2019-Jan-19 00:28N 33°45' W 118°17'0 0.0
2019-Jan-18 23:55N 33°45' W 118°17'0 0.0
2019-Jan-18 23:28N 33°45' W 118°17'0 0.0
2019-Jan-18 22:58N 33°45' W 118°17'0 0.0
2019-Jan-18 22:27N 33°45' W 118°17'0 0.0
2019-Jan-18 21:57N 33°45' W 118°17'0 0.0
2019-Jan-18 21:27N 33°45' W 118°17'0 0.0
2019-Jan-18 21:00N 33°45' W 118°17'0 0.0
2019-Jan-18 20:29N 33°45' W 118°17'0 0.0
2019-Jan-18 19:56N 33°45' W 118°17'0 0.0
2019-Jan-18 19:26N 33°45' W 118°17'0 0.0
2019-Jan-18 18:56N 33°45' W 118°17'0 0.0
2019-Jan-18 18:29N 33°45' W 118°17'0 0.0
2019-Jan-18 17:58N 33°45' W 118°17'0 0.0
2019-Jan-18 17:25N 33°45' W 118°17'0 0.0
2019-Jan-18 16:58N 33°45' W 118°17'0 0.0
2019-Jan-18 16:28N 33°45' W 118°17'0 0.0
2019-Jan-18 15:58N 33°45' W 118°17'0 0.0
2019-Jan-18 15:30N 33°45' W 118°17'0 0.0
2019-Jan-18 14:54N 33°45' W 118°17'0 0.0
2019-Jan-18 14:21N 33°45' W 118°17'0 0.1
2019-Jan-18 14:00N 33°45' W 118°17'1 2.9
2019-Jan-18 13:30N 33°43' W 118°16'4 8.6
2019-Jan-18 13:00N 33°40' W 118°13'4 8.5
2019-Jan-18 12:30N 33°37' W 118°10'611.8
2019-Jan-18 12:00N 33°31' W 118°08'611.8
2019-Jan-18 11:30N 33°25' W 118°06'612.2
2019-Jan-18 11:01N 33°20' W 118°03'611.9
2019-Jan-18 10:31N 33°14' W 118°00'612.9
2019-Jan-18 10:01N 33°08' W 117°57'713.0
2019-Jan-18 09:31N 33°02' W 117°54'612.8
2019-Jan-18 09:00N 32°56' W 117°51'612.9
2019-Jan-18 08:30N 32°51' W 117°48'612.7
2019-Jan-18 08:00N 32°45' W 117°45'612.7
2019-Jan-18 07:31N 32°39' W 117°42'612.5
2019-Jan-18 07:01N 32°33' W 117°39'612.4
2019-Jan-18 06:30N 32°28' W 117°36'612.4
2019-Jan-18 06:01N 32°22' W 117°32'612.4
2019-Jan-18 05:29N 32°16' W 117°29'612.3
2019-Jan-18 05:00N 32°11' W 117°25'912.3
2019-Jan-18 04:15N 32°05' W 117°17'76222.9
2019-Jan-16 19:00N 30°00' W 131°54'41359.0 210 / 191017.610.8 17.015.418.0
2019-Jan-16 12:00N 29°24' W 124°00'26615.7 210 / 111020.710.8 17.012.818.0
2019-Jan-15 19:00N 28°00' W 128°48'8316.6 230 / 251014.6 5.4 19.017.519.0
2019-Jan-15 14:00N 27°36' W 130°18'71117.3 240 / 211012.210.8 19.015.919.0
2019-Jan-13 21:00N 23°54' W 142°48'17919.9 130 / 121018.610.8 20.117.722.0
2019-Jan-13 12:00N 23°00' W 145°54'   080 / 51018.910.8 21.317.022.0
Track history (hours):
 
Tides and Currents Weather Stations Pressure Air Temp Water Temp Dewpoint Dewpoint Depression Visibility Wind Speed Wind Dir Waves Ship Positions

Emerald Princess

Last reported at 2019-Jan-23 09:00 UTC. Time now 2019-Jan-23 22:59 UTC.
Position N 20°48' W 152°48'.

Type: Ship. MMSI: 310531000.

Wind from 120 at 20 knots

Barometer 1018.1 mb
Air temperature 24.0 ° C
Dewpoint 19.6 ° C
Water temperature 24.0 ° C

Date/timePositionNaut miles runAvg speedWind from/ knotsBaromVisibWave heightAir tempDewpointWater temp
2019-Jan-23 09:00N 20°48' W 152°48'   120 / 201018.1 24.019.624.0
2019-Jan-20 07:00N 31°42' W 127°30'18120.1 200 / 91020.8 15.515.519.0
2019-Jan-19 22:00N 32°36' W 124°06'15715.3 360 / 131024.0 0.1 20.011.818.0
2019-Jan-19 11:46N 33°18' W 121°06'414.9
2019-Jan-19 11:30N 33°19' W 121°02'714.5
2019-Jan-19 11:00N 33°21' W 120°53'5319.2
2019-Jan-19 11:00N 33°18' W 120°48'510.0 360 / 401021.110.8 14.510.316.0
2019-Jan-19 10:30N 33°22' W 120°45'713.5
2019-Jan-19 10:00N 33°24' W 120°37'713.2
2019-Jan-19 09:30N 33°25' W 120°29'712.5
2019-Jan-19 08:56N 33°27' W 120°21'512.3
2019-Jan-19 08:30N 33°28' W 120°15'714.3
2019-Jan-19 08:00N 33°29' W 120°06'8734.3
2019-Jan-19 08:00N 33°24' W 120°00'713.4 330 / 311024.4 2.2 15.012.514.0
2019-Jan-19 07:30N 33°30' W 119°58'714.1
2019-Jan-19 07:00N 33°31' W 119°50'714.2
2019-Jan-19 06:30N 33°32' W 119°41'714.2
2019-Jan-19 06:00N 33°33' W 119°33'713.8
2019-Jan-19 05:30N 33°34' W 119°24'714.5
2019-Jan-19 05:01N 33°35' W 119°16'714.6
2019-Jan-19 04:31N 33°36' W 119°07'714.9
2019-Jan-19 04:00N 33°37' W 118°58'815.3
2019-Jan-19 03:30N 33°37' W 118°49'715.1
2019-Jan-19 03:01N 33°37' W 118°40'815.5
2019-Jan-19 02:30N 33°37' W 118°31'714.5
2019-Jan-19 02:00N 33°39' W 118°22'510.6
2019-Jan-19 01:31N 33°40' W 118°16'4 8.1
2019-Jan-19 01:00N 33°44' W 118°16'1 2.5
2019-Jan-19 00:28N 33°45' W 118°17'0 0.0
2019-Jan-18 23:55N 33°45' W 118°17'0 0.0
2019-Jan-18 23:28N 33°45' W 118°17'0 0.0
2019-Jan-18 22:58N 33°45' W 118°17'0 0.0
2019-Jan-18 22:27N 33°45' W 118°17'0 0.0
2019-Jan-18 21:57N 33°45' W 118°17'0 0.0
2019-Jan-18 21:27N 33°45' W 118°17'0 0.0
2019-Jan-18 21:00N 33°45' W 118°17'0 0.0
2019-Jan-18 20:29N 33°45' W 118°17'0 0.0
2019-Jan-18 19:56N 33°45' W 118°17'0 0.0
2019-Jan-18 19:26N 33°45' W 118°17'0 0.0
2019-Jan-18 18:56N 33°45' W 118°17'0 0.0
2019-Jan-18 18:29N 33°45' W 118°17'0 0.0
2019-Jan-18 17:58N 33°45' W 118°17'0 0.0
2019-Jan-18 17:25N 33°45' W 118°17'0 0.0
2019-Jan-18 16:58N 33°45' W 118°17'0 0.0
2019-Jan-18 16:28N 33°45' W 118°17'0 0.0
2019-Jan-18 15:58N 33°45' W 118°17'0 0.0
2019-Jan-18 15:30N 33°45' W 118°17'0 0.0
2019-Jan-18 14:54N 33°45' W 118°17'0 0.0
2019-Jan-18 14:21N 33°45' W 118°17'0 0.1
2019-Jan-18 14:00N 33°45' W 118°17'1 2.9
2019-Jan-18 13:30N 33°43' W 118°16'4 8.6
2019-Jan-18 13:00N 33°40' W 118°13'4 8.5
2019-Jan-18 12:30N 33°37' W 118°10'611.8
2019-Jan-18 12:00N 33°31' W 118°08'611.8
2019-Jan-18 11:30N 33°25' W 118°06'612.2
2019-Jan-18 11:01N 33°20' W 118°03'611.9
2019-Jan-18 10:31N 33°14' W 118°00'612.9
2019-Jan-18 10:01N 33°08' W 117°57'713.0
2019-Jan-18 09:31N 33°02' W 117°54'612.8
2019-Jan-18 09:00N 32°56' W 117°51'612.9
2019-Jan-18 08:30N 32°51' W 117°48'612.7
2019-Jan-18 08:00N 32°45' W 117°45'612.7
2019-Jan-18 07:31N 32°39' W 117°42'612.5
2019-Jan-18 07:01N 32°33' W 117°39'612.4
2019-Jan-18 06:30N 32°28' W 117°36'612.4
2019-Jan-18 06:01N 32°22' W 117°32'612.4
2019-Jan-18 05:29N 32°16' W 117°29'612.3
2019-Jan-18 05:00N 32°11' W 117°25'912.3
2019-Jan-18 04:15N 32°05' W 117°17'76222.9
2019-Jan-16 19:00N 30°00' W 131°54'41359.0 210 / 191017.610.8 17.015.418.0
2019-Jan-16 12:00N 29°24' W 124°00'26615.7 210 / 111020.710.8 17.012.818.0
2019-Jan-15 19:00N 28°00' W 128°48'8316.6 230 / 251014.6 5.4 19.017.519.0
2019-Jan-15 14:00N 27°36' W 130°18'71117.3 240 / 211012.210.8 19.015.919.0
2019-Jan-13 21:00N 23°54' W 142°48'17919.9 130 / 121018.610.8 20.117.722.0
2019-Jan-13 12:00N 23°00' W 145°54'   080 / 51018.910.8 21.317.022.0

Dump ship's entire track history